sensor_id;sensor_type;location;lat;lon;timestamp;temperature;humidity
8736;DHT22;4404;49.308;12.178;2023-06-22T05:58:20;19.30;99.90
8736;DHT22;4404;49.308;12.178;2023-06-22T06:10:51;19.40;99.90
8736;DHT22;4404;49.308;12.178;2023-06-22T06:12:55;19.60;99.90
8736;DHT22;4404;49.308;12.178;2023-06-22T06:14:59;19.60;99.90
8736;DHT22;4404;49.308;12.178;2023-06-22T06:17:01;19.70;99.90
8736;DHT22;4404;49.308;12.178;2023-06-22T06:21:10;19.80;99.90
8736;DHT22;4404;49.308;12.178;2023-06-22T06:23:12;19.80;99.90
8736;DHT22;4404;49.308;12.178;2023-06-22T06:25:15;20.00;99.90
8736;DHT22;4404;49.308;12.178;2023-06-22T06:27:19;20.00;99.90
8736;DHT22;4404;49.308;12.178;2023-06-22T06:29:29;20.10;99.90
8736;DHT22;4404;49.308;12.178;2023-06-22T06:31:33;20.30;99.90
8736;DHT22;4404;49.308;12.178;2023-06-22T06:33:36;20.30;99.90
8736;DHT22;4404;49.308;12.178;2023-06-22T06:35:38;20.40;99.90
8736;DHT22;4404;49.308;12.178;2023-06-22T06:37:42;20.60;99.90
8736;DHT22;4404;49.308;12.178;2023-06-22T06:41:47;20.80;99.90
8736;DHT22;4404;49.308;12.178;2023-06-22T06:43:49;20.90;99.90
8736;DHT22;4404;49.308;12.178;2023-06-22T06:45:51;20.90;99.90
8736;DHT22;4404;49.308;12.178;2023-06-22T06:47:54;21.00;99.90
8736;DHT22;4404;49.308;12.178;2023-06-22T06:51:59;21.20;99.90
8736;DHT22;4404;49.308;12.178;2023-06-22T06:54:01;21.30;99.90
8736;DHT22;4404;49.308;12.178;2023-06-22T06:56:07;21.30;99.90
8736;DHT22;4404;49.308;12.178;2023-06-22T06:58:11;21.40;99.90
8736;DHT22;4404;49.308;12.178;2023-06-22T07:00:15;21.50;99.90
8736;DHT22;4404;49.308;12.178;2023-06-22T07:04:22;21.70;99.90
8736;DHT22;4404;49.308;12.178;2023-06-22T07:06:28;21.80;99.90
8736;DHT22;4404;49.308;12.178;2023-06-22T07:08:36;21.80;99.90
8736;DHT22;4404;49.308;12.178;2023-06-22T07:13:04;22.00;99.90
8736;DHT22;4404;49.308;12.178;2023-06-22T07:15:09;22.10;99.90
8736;DHT22;4404;49.308;12.178;2023-06-22T07:24:04;22.40;99.90
8736;DHT22;4404;49.308;12.178;2023-06-22T07:30:53;22.70;99.90
8736;DHT22;4404;49.308;12.178;2023-06-22T07:33:16;22.80;99.90
8736;DHT22;4404;49.308;12.178;2023-06-22T07:37:51;22.90;99.90
8736;DHT22;4404;49.308;12.178;2023-06-22T07:40:08;23.00;99.90
8736;DHT22;4404;49.308;12.178;2023-06-22T07:42:29;23.10;99.90
8736;DHT22;4404;49.308;12.178;2023-06-22T07:44:43;23.20;99.90
8736;DHT22;4404;49.308;12.178;2023-06-22T07:47:00;23.30;99.90
8736;DHT22;4404;49.308;12.178;2023-06-22T07:51:23;23.60;99.90
8736;DHT22;4404;49.308;12.178;2023-06-22T07:53:31;23.70;99.90
8736;DHT22;4404;49.308;12.178;2023-06-22T07:55:41;23.90;99.90
8736;DHT22;4404;49.308;12.178;2023-06-22T07:57:48;24.00;99.90
8736;DHT22;4404;49.308;12.178;2023-06-22T08:02:06;24.20;99.90
8736;DHT22;4404;49.308;12.178;2023-06-22T08:04:20;24.30;99.90
8736;DHT22;4404;49.308;12.178;2023-06-22T08:06:29;24.40;99.90
8736;DHT22;4404;49.308;12.178;2023-06-22T08:10:59;24.60;99.90
8736;DHT22;4404;49.308;12.178;2023-06-22T08:15:39;24.90;99.90
8736;DHT22;4404;49.308;12.178;2023-06-22T08:20:14;25.10;99.90
8736;DHT22;4404;49.308;12.178;2023-06-22T08:22:51;25.10;99.90
8736;DHT22;4404;49.308;12.178;2023-06-22T08:25:27;25.10;99.90
8736;DHT22;4404;49.308;12.178;2023-06-22T08:27:42;25.40;99.90
8736;DHT22;4404;49.308;12.178;2023-06-22T08:30:25;25.40;99.90
8736;DHT22;4404;49.308;12.178;2023-06-22T08:36:58;25.70;99.90
8736;DHT22;4404;49.308;12.178;2023-06-22T08:41:50;27.30;99.90
8736;DHT22;4404;49.308;12.178;2023-06-22T08:44:36;26.10;99.90
8736;DHT22;4404;49.308;12.178;2023-06-22T08:49:09;26.20;99.90
8736;DHT22;4404;49.308;12.178;2023-06-22T08:51:14;26.30;99.90
8736;DHT22;4404;49.308;12.178;2023-06-22T08:55:56;26.60;99.90
8736;DHT22;4404;49.308;12.178;2023-06-22T08:58:11;26.70;99.90
8736;DHT22;4404;49.308;12.178;2023-06-22T09:00:23;25.60;99.90
8736;DHT22;4404;49.308;12.178;2023-06-22T09:17:09;27.40;99.90
8736;DHT22;4404;49.308;12.178;2023-06-22T09:21:22;27.40;99.90
8736;DHT22;4404;49.308;12.178;2023-06-22T09:25:34;27.60;99.90
8736;DHT22;4404;49.308;12.178;2023-06-22T09:27:41;27.70;99.90
8736;DHT22;4404;49.308;12.178;2023-06-22T09:30:04;27.80;99.90
8736;DHT22;4404;49.308;12.178;2023-06-22T09:32:11;27.90;99.90
8736;DHT22;4404;49.308;12.178;2023-06-22T09:34:21;27.90;99.90
8736;DHT22;4404;49.308;12.178;2023-06-22T09:40:59;28.00;99.90
8736;DHT22;4404;49.308;12.178;2023-06-22T09:43:11;28.10;99.90
8736;DHT22;4404;49.308;12.178;2023-06-22T09:47:32;27.90;99.90
8736;DHT22;4404;49.308;12.178;2023-06-22T09:51:52;28.30;99.90
8736;DHT22;4404;49.308;12.178;2023-06-22T09:53:58;28.50;99.90
8736;DHT22;4404;49.308;12.178;2023-06-22T09:56:04;28.60;99.90
8736;DHT22;4404;49.308;12.178;2023-06-22T10:00:17;28.70;99.90
8736;DHT22;4404;49.308;12.178;2023-06-22T10:06:28;28.90;99.90
8736;DHT22;4404;49.308;12.178;2023-06-22T10:08:34;29.00;99.90
8736;DHT22;4404;49.308;12.178;2023-06-22T10:12:56;29.20;99.90
8736;DHT22;4404;49.308;12.178;2023-06-22T10:15:20;29.40;99.90
8736;DHT22;4404;49.308;12.178;2023-06-22T10:19:49;29.70;99.90
8736;DHT22;4404;49.308;12.178;2023-06-22T10:26:21;30.20;99.90
8736;DHT22;4404;49.308;12.178;2023-06-22T10:28:43;30.40;99.90
8736;DHT22;4404;49.308;12.178;2023-06-22T10:30:52;30.30;99.80
8736;DHT22;4404;49.308;12.178;2023-06-22T10:32:56;30.40;99.60
8736;DHT22;4404;49.308;12.178;2023-06-22T10:35:08;30.60;97.70
8736;DHT22;4404;49.308;12.178;2023-06-22T10:39:33;30.30;95.20
8736;DHT22;4404;49.308;12.178;2023-06-22T10:46:09;30.40;96.50
8736;DHT22;4404;49.308;12.178;2023-06-22T10:50:22;30.30;95.10
8736;DHT22;4404;49.308;12.178;2023-06-22T11:07:20;31.00;91.90
8736;DHT22;4404;49.308;12.178;2023-06-22T11:11:25;30.90;93.50
8736;DHT22;4404;49.308;12.178;2023-06-22T11:13:27;31.10;93.10
8736;DHT22;4404;49.308;12.178;2023-06-22T11:15:30;31.30;92.70
8736;DHT22;4404;49.308;12.178;2023-06-22T11:29:54;32.10;85.80
8736;DHT22;4404;49.308;12.178;2023-06-22T11:40:08;33.10;82.30
8736;DHT22;4404;49.308;12.178;2023-06-22T11:56:32;33.50;81.20
8736;DHT22;4404;49.308;12.178;2023-06-22T11:58:37;33.80;80.60
8736;DHT22;4404;49.308;12.178;2023-06-22T12:12:57;33.60;79.70
8736;DHT22;4404;49.308;12.178;2023-06-22T12:15:02;33.50;75.00
8736;DHT22;4404;49.308;12.178;2023-06-22T12:21:21;33.30;77.70
8736;DHT22;4404;49.308;12.178;2023-06-22T12:35:43;35.60;72.30
8736;DHT22;4404;49.308;12.178;2023-06-22T12:51:22;35.90;65.60
8736;DHT22;4404;49.308;12.178;2023-06-22T13:13:00;36.80;62.10
8736;DHT22;4404;49.308;12.178;2023-06-22T13:26:26;38.20;59.00
8736;DHT22;4404;49.308;12.178;2023-06-22T13:32:39;37.80;60.30
8736;DHT22;4404;49.308;12.178;2023-06-22T13:34:43;37.70;60.20
8736;DHT22;4404;49.308;12.178;2023-06-22T13:40:50;37.40;59.80
8736;DHT22;4404;49.308;12.178;2023-06-22T13:42:53;37.00;61.30
8736;DHT22;4404;49.308;12.178;2023-06-22T13:46:58;37.10;58.30
8736;DHT22;4404;49.308;12.178;2023-06-22T13:49:00;35.70;60.10
8736;DHT22;4404;49.308;12.178;2023-06-22T13:53:07;35.70;63.00
8736;DHT22;4404;49.308;12.178;2023-06-22T14:05:22;35.60;62.70
8736;DHT22;4404;49.308;12.178;2023-06-22T14:15:37;36.30;60.40
8736;DHT22;4404;49.308;12.178;2023-06-22T14:21:46;36.70;60.20
8736;DHT22;4404;49.308;12.178;2023-06-22T14:23:48;36.60;58.00
8736;DHT22;4404;49.308;12.178;2023-06-22T14:27:53;36.40;58.40
8736;DHT22;4404;49.308;12.178;2023-06-22T14:36:06;34.70;60.90
8736;DHT22;4404;49.308;12.178;2023-06-22T14:46:19;35.10;63.00
8736;DHT22;4404;49.308;12.178;2023-06-22T14:48:23;35.40;62.30
8736;DHT22;4404;49.308;12.178;2023-06-22T15:02:41;35.20;62.70
8736;DHT22;4404;49.308;12.178;2023-06-22T15:10:52;34.90;63.70
8736;DHT22;4404;49.308;12.178;2023-06-22T15:25:26;34.80;60.60
8736;DHT22;4404;49.308;12.178;2023-06-22T15:27:28;34.70;61.90
8736;DHT22;4404;49.308;12.178;2023-06-22T15:31:34;34.70;62.70
8736;DHT22;4404;49.308;12.178;2023-06-22T15:33:36;34.60;63.10
8736;DHT22;4404;49.308;12.178;2023-06-22T15:35:38;34.70;63.20
8736;DHT22;4404;49.308;12.178;2023-06-22T15:37:42;34.80;67.00
8736;DHT22;4404;49.308;12.178;2023-06-22T15:39:44;34.60;63.80
8736;DHT22;4404;49.308;12.178;2023-06-22T15:43:48;34.50;64.10
8736;DHT22;4404;49.308;12.178;2023-06-22T15:45:50;34.50;65.50
8736;DHT22;4404;49.308;12.178;2023-06-22T15:47:54;34.60;69.00
8736;DHT22;4404;49.308;12.178;2023-06-22T15:49:56;34.60;67.90
8736;DHT22;4404;49.308;12.178;2023-06-22T15:51:58;34.60;66.70
8736;DHT22;4404;49.308;12.178;2023-06-22T15:54:02;34.70;69.20
8736;DHT22;4404;49.308;12.178;2023-06-22T15:56:04;34.80;69.80
8736;DHT22;4404;49.308;12.178;2023-06-22T15:58:10;34.80;68.00
8736;DHT22;4404;49.308;12.178;2023-06-22T16:00:16;34.80;68.30
8736;DHT22;4404;49.308;12.178;2023-06-22T16:02:18;34.90;71.60
8736;DHT22;4404;49.308;12.178;2023-06-22T16:04:21;34.90;70.60
8736;DHT22;4404;49.308;12.178;2023-06-22T16:06:23;34.80;69.30
8736;DHT22;4404;49.308;12.178;2023-06-22T16:08:25;34.40;70.50
8736;DHT22;4404;49.308;12.178;2023-06-22T16:10:32;33.70;70.20
8736;DHT22;4404;49.308;12.178;2023-06-22T16:12:35;33.80;71.80
8736;DHT22;4404;49.308;12.178;2023-06-22T16:14:37;33.70;70.40
8736;DHT22;4404;49.308;12.178;2023-06-22T16:16:41;33.40;71.10
8736;DHT22;4404;49.308;12.178;2023-06-22T16:18:43;33.40;73.00
8736;DHT22;4404;49.308;12.178;2023-06-22T16:20:46;33.40;72.50
8736;DHT22;4404;49.308;12.178;2023-06-22T16:22:48;33.50;72.30
8736;DHT22;4404;49.308;12.178;2023-06-22T16:24:50;33.40;72.50
8736;DHT22;4404;49.308;12.178;2023-06-22T16:26:55;33.50;75.40
8736;DHT22;4404;49.308;12.178;2023-06-22T16:28:57;33.60;76.50
8736;DHT22;4404;49.308;12.178;2023-06-22T16:30:59;33.60;75.80
8736;DHT22;4404;49.308;12.178;2023-06-22T16:33:01;33.70;75.70
8736;DHT22;4404;49.308;12.178;2023-06-22T16:35:05;33.60;77.50
8736;DHT22;4404;49.308;12.178;2023-06-22T16:37:07;33.70;78.30
8736;DHT22;4404;49.308;12.178;2023-06-22T16:39:09;33.70;75.30
8736;DHT22;4404;49.308;12.178;2023-06-22T16:41:11;33.60;74.80
8736;DHT22;4404;49.308;12.178;2023-06-22T16:43:16;33.50;72.70
8736;DHT22;4404;49.308;12.178;2023-06-22T16:45:19;33.40;74.60
8736;DHT22;4404;49.308;12.178;2023-06-22T16:47:21;33.40;76.70
8736;DHT22;4404;49.308;12.178;2023-06-22T16:49:23;33.40;75.40
8736;DHT22;4404;49.308;12.178;2023-06-22T16:51:25;33.40;75.30
8736;DHT22;4404;49.308;12.178;2023-06-22T16:53:28;33.30;74.90
8736;DHT22;4404;49.308;12.178;2023-06-22T16:55:30;33.20;74.80
8736;DHT22;4404;49.308;12.178;2023-06-22T16:57:32;33.20;75.10
8736;DHT22;4404;49.308;12.178;2023-06-22T16:59:37;33.10;75.50
8736;DHT22;4404;49.308;12.178;2023-06-22T17:01:45;33.10;78.00
8736;DHT22;4404;49.308;12.178;2023-06-22T17:03:59;33.20;78.70
8736;DHT22;4404;49.308;12.178;2023-06-22T17:06:03;33.20;81.60
8736;DHT22;4404;49.308;12.178;2023-06-22T17:08:08;33.20;81.80
8736;DHT22;4404;49.308;12.178;2023-06-22T17:10:15;33.20;84.10
8736;DHT22;4404;49.308;12.178;2023-06-22T17:12:17;33.20;84.00
8736;DHT22;4404;49.308;12.178;2023-06-22T17:14:20;33.10;84.50
8736;DHT22;4404;49.308;12.178;2023-06-22T17:16:24;33.10;85.50
8736;DHT22;4404;49.308;12.178;2023-06-22T17:18:28;32.90;81.70
8736;DHT22;4404;49.308;12.178;2023-06-22T17:20:31;32.80;83.20
8736;DHT22;4404;49.308;12.178;2023-06-22T17:22:33;32.70;86.00
8736;DHT22;4404;49.308;12.178;2023-06-22T17:24:39;32.60;86.70
8736;DHT22;4404;49.308;12.178;2023-06-22T17:26:45;32.50;87.90
8736;DHT22;4404;49.308;12.178;2023-06-22T17:28:49;32.50;89.10
8736;DHT22;4404;49.308;12.178;2023-06-22T17:31:08;32.40;88.70
8736;DHT22;4404;49.308;12.178;2023-06-22T17:33:15;32.30;88.70
8736;DHT22;4404;49.308;12.178;2023-06-22T17:35:19;32.20;90.10
8736;DHT22;4404;49.308;12.178;2023-06-22T17:37:22;32.00;88.10
8736;DHT22;4404;49.308;12.178;2023-06-22T17:39:25;32.00;90.30
8736;DHT22;4404;49.308;12.178;2023-06-22T17:41:35;31.90;90.30
8736;DHT22;4404;49.308;12.178;2023-06-22T17:44:04;31.70;91.10
8736;DHT22;4404;49.308;12.178;2023-06-22T17:46:27;31.70;91.90
8736;DHT22;4404;49.308;12.178;2023-06-22T17:48:44;31.60;91.50
8736;DHT22;4404;49.308;12.178;2023-06-22T17:50:59;31.50;91.10
8736;DHT22;4404;49.308;12.178;2023-06-22T17:53:12;31.60;91.40
8736;DHT22;4404;49.308;12.178;2023-06-22T17:55:20;31.40;92.70
8736;DHT22;4404;49.308;12.178;2023-06-22T17:57:24;31.40;92.90
8736;DHT22;4404;49.308;12.178;2023-06-22T17:59:28;31.30;93.40
8736;DHT22;4404;49.308;12.178;2023-06-22T18:02:55;31.30;93.60
8736;DHT22;4404;49.308;12.178;2023-06-22T18:07:53;31.10;94.90
8736;DHT22;4404;49.308;12.178;2023-06-22T18:12:24;30.70;94.90
8736;DHT22;4404;49.308;12.178;2023-06-22T18:14:28;30.80;95.40
8736;DHT22;4404;49.308;12.178;2023-06-22T18:16:50;30.70;95.70
8736;DHT22;4404;49.308;12.178;2023-06-22T18:18:53;30.60;96.20
8736;DHT22;4404;49.308;12.178;2023-06-22T18:20:56;30.50;96.90
8736;DHT22;4404;49.308;12.178;2023-06-22T18:23:03;30.50;96.70
8736;DHT22;4404;49.308;12.178;2023-06-22T18:25:07;30.40;97.20
8736;DHT22;4404;49.308;12.178;2023-06-22T18:27:11;30.40;97.30
8736;DHT22;4404;49.308;12.178;2023-06-22T18:29:18;30.30;97.60
8736;DHT22;4404;49.308;12.178;2023-06-22T18:31:31;30.30;98.10
8736;DHT22;4404;49.308;12.178;2023-06-22T18:33:44;30.30;98.70
8736;DHT22;4404;49.308;12.178;2023-06-22T18:35:49;30.00;96.00
8736;DHT22;4404;49.308;12.178;2023-06-22T18:40:00;29.80;95.90
8736;DHT22;4404;49.308;12.178;2023-06-22T18:42:09;29.80;96.20
8736;DHT22;4404;49.308;12.178;2023-06-22T18:44:12;29.80;96.00
8736;DHT22;4404;49.308;12.178;2023-06-22T18:46:31;29.80;95.50
8736;DHT22;4404;49.308;12.178;2023-06-22T18:48:34;29.80;94.20
